Dalaman International Airport

LTBS · 穆拉省, 土耳其

罗盘
风向 的 风向 070° Dalaman International Airport 1/19
风: 6 kt, 2 beaufort

3 kt

5 kt
改变
0 ft 2.000 4.000 6.000 8.000 10.000
Cloud Cloud Cloud Cloud
SCT 3.000
Cloud Cloud Cloud Cloud Cloud Cloud
BKN 10.000
METAR LTBS 020520Z 07006KT 9999 SCT030 BKN100 09/06 Q1012 NOSIG RMK RWY19 33006KT 3CU030 5AC100

METAR Dalaman International Airport - LTBS/DLM

Dalaman International Airport是,土耳其中的大型机场。 该机场位于纬度36,71310和经度28,79250。 该机场有一条跑道: 1/19. 本场的ICAO机场代码为LTBS。 该机场的IATA代码为DLM。 机场在Istanbul FIR中。

该航空气象观测是针对Dalaman International Airport在2024年3月2日 08:20, 当地时间进行的。

机场观察

风向为070°,速度为6 kt。

可见度为10 km 或者更多。

有疏云,零星散落的云朵在3.000 ft的高度 和 碎云在10.000 ft的高度。 破损或更高的上限为10.000 ft。

温度为9 °C,阵风为6 °C。 露点为6 °C,相对湿度为82%。 海平面上的气压为1012 hPa (QNH)。

白天

今天,太阳从07:33升起,在19:00降落。 这适用于Dalaman International Airport,世界夏令时可能有所不同。 当地时间与世界标准时间之间的时差为+3 小时。 当前,没有夏令时有效。

公司介绍

我们没有关于这个机场的公司信息。

体会

到Vliegles.nl去找飞行课程,跳伞和其他飞行体验。 浏览页面,了解Dalaman International Airport附近所有可用的活动。 你也可以使用搜索功能来寻找你所在地附近的特定飞行课程、跳伞或其他飞行体验。

跑道

Id 标题 侧风 逆风 侧风 %
1/19 015°-195° 5 kt 3 kt 82 %

逆风成分最大的方向会被突出显示,并用于横风计算。 这并不一定意味着这个方向在使用。

乌云

3.000 ft SCT 疏云,零星散落的云朵
10.000 ft BKN 碎云

温度 & 天气

温度 9 °C
露点 6 °C
相对湿度 82%
风寒 6 °C
Kp-index 1 (0-9)

评论

RWY19 33006KT 3CU030 5AC100

白天

日出
07:33
中午
13:16
日落
19:00 (10:20)

小工具

你想在你的网站上有一个关于Dalaman International Airport的当前航空天气(METAR)的小部件吗?

显示HTML代码
?>